Time;durP1;ratioP1;P1;durP2;ratioP2;P2;SDS_P1;SDS_P2;PMS_P1;PMS_P2;Temp;Humidity;BMP_temperature;BMP_pressure;BME280_temperature;BME280_humidity;BME280_pressure;Samples;Min_cycle;Max_cycle;Signal;HPM_P1;HPM_P2
2022/01/10 00:00:16;;;;;;;67.97;45.75;;;21.40;97.10;;;;;;4192216;28;20132;-63
2022/01/10 00:02:20;;;;;;;76.10;46.85;;;21.40;97.10;;;;;;4191978;28;20054;-63
2022/01/10 00:04:25;;;;;;;67.10;46.50;;;21.40;97.20;;;;;;4214819;28;20475;-64
2022/01/10 00:06:31;;;;;;;70.82;46.70;;;21.50;97.30;;;;;;4225618;28;20127;-63
2022/01/10 00:08:37;;;;;;;70.10;46.10;;;21.50;97.40;;;;;;4218523;28;21119;-63
2022/01/10 00:10:42;;;;;;;72.07;48.30;;;21.50;97.40;;;;;;4214111;28;20379;-63
2022/01/10 00:12:46;;;;;;;74.40;48.42;;;21.50;97.50;;;;;;4215062;28;20043;-62
2022/01/10 00:14:52;;;;;;;70.97;50.45;;;21.50;97.60;;;;;;4216435;28;20058;-64
2022/01/10 00:16:56;;;;;;;79.70;52.15;;;21.50;97.70;;;;;;4216227;28;20080;-65
2022/01/10 00:19:00;;;;;;;73.28;52.33;;;21.50;97.60;;;;;;4214280;28;20040;-64
2022/01/10 00:21:05;;;;;;;78.93;54.38;;;21.50;97.60;;;;;;4213375;28;20429;-63
2022/01/10 00:23:10;;;;;;;83.10;53.55;;;21.50;97.60;;;;;;4215780;28;20051;-63
2022/01/10 00:25:15;;;;;;;88.63;54.58;;;21.50;97.60;;;;;;4215792;28;20078;-62
2022/01/10 00:27:20;;;;;;;76.90;51.42;;;21.50;97.60;;;;;;4213667;28;20453;-62
2022/01/10 00:29:25;;;;;;;86.32;52.10;;;21.60;97.50;;;;;;4215541;28;20039;-62
2022/01/10 00:31:30;;;;;;;80.35;51.25;;;21.70;97.40;;;;;;4213214;28;20124;-62
2022/01/10 00:33:35;;;;;;;79.28;51.28;;;21.70;97.30;;;;;;4214406;28;20067;-63
2022/01/10 00:35:40;;;;;;;74.60;49.90;;;21.80;97.20;;;;;;4214593;28;20044;-62
2022/01/10 00:37:45;;;;;;;69.88;51.63;;;21.80;97.00;;;;;;4214441;28;20047;-62
2022/01/10 00:39:51;;;;;;;79.60;50.83;;;21.80;97.00;;;;;;4203633;28;20074;-63
2022/01/10 00:41:56;;;;;;;83.22;52.67;;;21.80;97.00;;;;;;4203040;28;20055;-62
2022/01/10 00:44:01;;;;;;;73.28;50.92;;;21.80;97.00;;;;;;4204432;28;20052;-63
2022/01/10 00:46:07;;;;;;;84.82;52.03;;;21.80;97.00;;;;;;4204601;28;20045;-63
2022/01/10 00:48:12;;;;;;;79.57;51.17;;;21.80;97.10;;;;;;4201452;28;20127;-63
2022/01/10 00:50:17;;;;;;;78.93;52.22;;;21.80;97.00;;;;;;4204547;28;20040;-63
2022/01/10 00:52:22;;;;;;;78.85;51.00;;;21.80;97.40;;;;;;4204282;28;20052;-63
2022/01/10 00:54:29;;;;;;;76.72;50.47;;;21.80;97.70;;;;;;4204286;28;20539;-62
2022/01/10 00:56:33;;;;;;;77.43;50.50;;;21.80;97.40;;;;;;4200455;28;20051;-63
2022/01/10 00:58:38;;;;;;;78.93;51.03;;;21.80;97.60;;;;;;4202615;28;20040;-63
2022/01/10 01:00:42;;;;;;;74.75;50.65;;;21.80;97.50;;;;;;4204505;28;20062;-63
2022/01/10 01:02:47;;;;;;;70.50;49.78;;;21.90;97.40;;;;;;4204207;28;20044;-63
2022/01/10 01:04:54;;;;;;;68.78;44.85;;;21.90;97.50;;;;;;4201893;28;20066;-63
2022/01/10 01:06:59;;;;;;;68.70;46.53;;;21.90;97.50;;;;;;4203210;28;20052;-63
2022/01/10 01:09:08;;;;;;;63.67;42.85;;;22.00;97.50;;;;;;4203706;28;20068;-63
2022/01/10 01:13:53;;;;;;;74.65;47.78;;;21.90;98.00;;;;;;4196829;28;20044;-62
2022/01/10 01:18:17;;;;;;;91.53;54.97;;;22.00;97.80;;;;;;4196870;28;20131;-62
2022/01/10 01:20:42;;;;;;;94.95;57.22;;;22.10;97.70;;;;;;4196596;28;20550;-63
2022/01/10 01:25:05;;;;;;;77.20;47.35;;;22.30;97.30;;;;;;4197401;28;20056;-66
2022/01/10 01:27:11;;;;;;;74.72;47.03;;;22.40;97.10;;;;;;4209041;28;20430;-63
2022/01/10 01:29:17;;;;;;;73.93;45.60;;;22.50;97.00;;;;;;4208912;28;20435;-63
2022/01/10 01:31:23;;;;;;;63.97;41.38;;;22.50;97.00;;;;;;4195941;28;20394;-62
2022/01/10 01:33:29;;;;;;;57.65;40.53;;;22.50;96.90;;;;;;4198594;28;20044;-62
2022/01/10 01:35:36;;;;;;;61.85;39.40;;;22.50;96.80;;;;;;4199239;28;20055;-61
2022/01/10 01:37:41;;;;;;;58.63;38.72;;;22.60;96.70;;;;;;4199081;28;20085;-62
2022/01/10 01:39:45;;;;;;;50.70;35.47;;;22.60;96.90;;;;;;4196454;28;20083;-61
2022/01/10 01:41:59;;;;;;;50.13;32.53;;;22.60;97.00;;;;;;4197812;28;20048;-63
2022/01/10 01:44:05;;;;;;;49.28;32.22;;;22.70;96.70;;;;;;4194024;28;20048;-63
2022/01/10 01:46:10;;;;;;;49.50;29.40;;;22.80;96.60;;;;;;4201618;28;20044;-64
2022/01/10 01:48:15;;;;;;;45.10;28.00;;;22.90;96.40;;;;;;4202073;28;20055;-64
2022/01/10 01:50:20;;;;;;;44.30;27.15;;;22.90;96.30;;;;;;4196969;28;20127;-63
2022/01/10 01:52:25;;;;;;;43.30;26.08;;;23.00;96.20;;;;;;4204642;28;20627;-63
2022/01/10 01:54:30;;;;;;;41.90;24.15;;;23.00;96.10;;;;;;4204718;28;20063;-63
2022/01/10 01:56:35;;;;;;;41.33;23.02;;;23.10;96.00;;;;;;4202348;28;20040;-63
2022/01/10 01:58:41;;;;;;;39.28;21.85;;;23.10;95.90;;;;;;4201943;28;20045;-67
2022/01/10 02:00:46;;;;;;;39.22;23.60;;;23.10;95.80;;;;;;4196517;28;20140;-66
2022/01/10 02:02:53;;;;;;;46.60;23.58;;;23.20;95.70;;;;;;4201621;28;20051;-64
2022/01/10 02:05:01;;;;;;;45.05;24.30;;;23.20;95.80;;;;;;4201899;28;20086;-64
2022/01/10 02:07:06;;;;;;;35.08;22.15;;;23.30;95.80;;;;;;4201954;28;20154;-64
2022/01/10 02:09:17;;;;;;;31.05;21.60;;;23.30;95.90;;;;;;4201482;28;20048;-64
2022/01/10 02:11:26;;;;;;;35.58;21.35;;;23.30;96.00;;;;;;4199937;28;20052;-63
2022/01/10 02:13:31;;;;;;;34.65;21.00;;;23.40;95.90;;;;;;4201803;28;20044;-63
2022/01/10 02:18:00;;;;;;;28.90;17.58;;;23.40;95.70;;;;;;4201759;28;20061;-62
2022/01/10 02:20:06;;;;;;;30.40;18.67;;;23.40;95.50;;;;;;4200583;28;20044;-64
2022/01/10 02:22:13;;;;;;;27.58;17.40;;;23.50;95.30;;;;;;4203105;28;20055;-64
2022/01/10 02:24:34;;;;;;;24.35;16.48;;;23.60;95.20;;;;;;4195794;28;20040;-65
2022/01/10 02:26:39;;;;;;;24.58;15.30;;;23.60;95.20;;;;;;4201871;28;20056;-64
2022/01/10 02:28:44;;;;;;;25.80;15.98;;;23.60;94.80;;;;;;4199032;28;20123;-64
2022/01/10 02:30:55;;;;;;;27.13;16.25;;;23.70;94.80;;;;;;4201601;28;20040;-64
2022/01/10 02:33:01;;;;;;;23.63;14.55;;;23.70;94.80;;;;;;4218133;28;20052;-64
2022/01/10 02:35:19;;;;;;;24.63;15.27;;;23.80;95.00;;;;;;4201546;28;20453;-64
2022/01/10 02:37:34;;;;;;;25.67;17.05;;;23.80;95.20;;;;;;4201437;28;20047;-64
2022/01/10 02:39:42;;;;;;;26.83;18.25;;;23.90;95.40;;;;;;4202665;28;20094;-66
2022/01/10 02:41:47;;;;;;;31.67;18.63;;;24.00;95.20;;;;;;4201290;28;20036;-65
2022/01/10 02:43:52;;;;;;;27.55;16.80;;;24.00;95.00;;;;;;4200388;28;20032;-64
2022/01/10 02:45:59;;;;;;;25.40;16.35;;;24.00;94.90;;;;;;4195778;28;20051;-65
2022/01/10 02:48:05;;;;;;;29.10;15.80;;;24.00;94.60;;;;;;4194869;28;20063;-64
2022/01/10 02:50:11;;;;;;;26.52;17.23;;;24.10;94.50;;;;;;4193814;28;20064;-64
2022/01/10 02:52:18;;;;;;;28.85;16.38;;;24.10;94.20;;;;;;4190008;28;20392;-64
2022/01/10 02:54:25;;;;;;;24.42;15.93;;;24.10;94.10;;;;;;4191758;28;20045;-64
2022/01/10 02:56:31;;;;;;;19.30;13.95;;;24.20;94.20;;;;;;4193184;28;20101;-64
2022/01/10 02:58:36;;;;;;;29.20;15.05;;;24.20;94.60;;;;;;4193006;28;20117;-63
2022/01/10 03:00:41;;;;;;;27.75;14.48;;;24.30;94.40;;;;;;4191788;28;20045;-63
2022/01/10 03:02:50;;;;;;;22.60;14.02;;;24.40;94.60;;;;;;4194320;28;20048;-64
2022/01/10 03:04:57;;;;;;;23.45;13.57;;;24.40;94.30;;;;;;4190690;28;20048;-62
2022/01/10 03:07:06;;;;;;;21.98;13.70;;;24.50;93.90;;;;;;4192818;28;20048;-62
2022/01/10 03:09:12;;;;;;;19.67;11.45;;;24.50;93.70;;;;;;4193075;28;20502;-63
2022/01/10 03:11:20;;;;;;;20.45;10.70;;;24.50;93.30;;;;;;4191684;28;20491;-62
2022/01/10 03:13:25;;;;;;;17.92;11.05;;;24.60;93.10;;;;;;4191686;28;20627;-63
2022/01/10 03:15:35;;;;;;;18.17;10.90;;;24.60;92.90;;;;;;4194499;28;20139;-62
2022/01/10 03:17:41;;;;;;;19.73;10.48;;;24.60;93.00;;;;;;4193326;28;20376;-63
2022/01/10 03:19:50;;;;;;;22.38;10.80;;;24.70;93.10;;;;;;4192160;28;20629;-63
2022/01/10 03:21:56;;;;;;;18.73;11.18;;;24.70;92.90;;;;;;4191838;28;20052;-64
2022/01/10 03:24:01;;;;;;;19.55;11.38;;;24.80;92.90;;;;;;4194766;28;20056;-65
2022/01/10 03:26:09;;;;;;;21.50;11.15;;;24.80;92.80;;;;;;4190334;28;20066;-64
2022/01/10 03:28:15;;;;;;;19.70;11.13;;;24.90;92.60;;;;;;4192218;28;20059;-65
2022/01/10 03:30:24;;;;;;;20.17;11.77;;;25.00;92.50;;;;;;4191128;28;20515;-65
2022/01/10 03:32:51;;;;;;;19.52;11.90;;;25.00;92.30;;;;;;4177413;28;20056;-64
2022/01/10 03:35:14;;;;;;;26.30;12.27;;;25.10;92.60;;;;;;4196514;28;20040;-64
2022/01/10 03:37:30;;;;;;;25.73;12.65;;;25.10;92.70;;;;;;4199851;28;20394;-64
2022/01/10 03:39:38;;;;;;;19.42;12.27;;;25.10;92.40;;;;;;4200936;28;20043;-63
2022/01/10 03:41:49;;;;;;;19.95;12.25;;;25.20;92.30;;;;;;4196212;28;20044;-64
2022/01/10 03:44:07;;;;;;;19.02;11.85;;;25.20;92.00;;;;;;4197529;28;20053;-63
2022/01/10 03:46:18;;;;;;;21.40;12.13;;;25.30;91.90;;;;;;4197280;28;20052;-64
2022/01/10 03:48:36;;;;;;;19.17;11.55;;;25.40;91.90;;;;;;4191522;28;20079;-64
2022/01/10 03:50:42;;;;;;;15.70;11.32;;;25.40;92.00;;;;;;4193205;28;20450;-64
2022/01/10 03:52:48;;;;;;;17.60;10.77;;;25.50;91.90;;;;;;4193232;28;20044;-65
2022/01/10 03:54:54;;;;;;;18.75;11.68;;;25.60;91.50;;;;;;4200992;28;20044;-64
2022/01/10 03:56:59;;;;;;;17.83;11.48;;;25.60;91.00;;;;;;4198114;28;20048;-65
2022/01/10 03:59:05;;;;;;;17.05;11.68;;;25.60;91.10;;;;;;4196762;28;20076;-64
2022/01/10 04:01:12;;;;;;;17.80;11.18;;;25.70;91.10;;;;;;4195898;28;20044;-65
2022/01/10 04:03:22;;;;;;;19.05;11.32;;;25.70;91.00;;;;;;4199475;28;20095;-67
2022/01/10 04:05:35;;;;;;;19.92;11.75;;;25.80;90.60;;;;;;4200676;28;20120;-64
2022/01/10 04:07:40;;;;;;;18.60;10.23;;;25.80;90.80;;;;;;4201718;28;20571;-65
2022/01/10 04:09:47;;;;;;;21.40;11.05;;;25.90;90.30;;;;;;4201898;28;20032;-63
2022/01/10 04:11:52;;;;;;;17.75;11.20;;;26.00;89.10;;;;;;4199319;28;20652;-65
2022/01/10 04:14:00;;;;;;;18.42;11.68;;;26.00;88.70;;;;;;4201072;28;20086;-65
2022/01/10 04:16:08;;;;;;;19.48;12.00;;;26.10;89.00;;;;;;4203422;28;20055;-65
2022/01/10 04:18:14;;;;;;;17.55;11.60;;;26.10;89.10;;;;;;4218020;28;20035;-64
2022/01/10 04:20:19;;;;;;;20.63;11.48;;;26.20;89.20;;;;;;4203762;28;20086;-64
2022/01/10 04:22:24;;;;;;;18.65;11.32;;;26.20;90.00;;;;;;4203779;28;20048;-64
2022/01/10 04:24:30;;;;;;;20.40;11.57;;;26.20;90.00;;;;;;4201420;28;20536;-64
2022/01/10 04:26:35;;;;;;;18.10;11.10;;;26.30;89.70;;;;;;4203518;28;20049;-65
2022/01/10 04:28:41;;;;;;;16.95;10.95;;;26.40;88.70;;;;;;4203147;28;20569;-64
2022/01/10 04:30:45;;;;;;;14.10;9.82;;;26.40;88.80;;;;;;4199972;28;20046;-64
2022/01/10 04:32:50;;;;;;;16.75;10.82;;;26.50;88.20;;;;;;4200676;28;20448;-64
2022/01/10 04:34:55;;;;;;;16.98;11.02;;;26.50;87.40;;;;;;4197804;28;20493;-64
2022/01/10 04:37:01;;;;;;;16.83;10.25;;;26.60;87.40;;;;;;4195397;28;20052;-63
2022/01/10 04:39:06;;;;;;;18.08;10.02;;;26.60;86.40;;;;;;4190816;28;20072;-63
2022/01/10 04:41:11;;;;;;;14.77;10.18;;;26.70;86.90;;;;;;4192970;28;20417;-63
2022/01/10 04:43:17;;;;;;;14.18;10.23;;;26.70;87.30;;;;;;4193921;28;20372;-63
2022/01/10 04:45:24;;;;;;;19.33;10.73;;;26.80;86.70;;;;;;4194522;28;20485;-63
2022/01/10 04:47:30;;;;;;;16.65;9.27;;;26.90;86.30;;;;;;4209543;28;20126;-63
2022/01/10 04:52:03;;;;;;;14.85;9.35;;;27.10;85.30;;;;;;4191534;28;20495;-64
2022/01/10 04:54:08;;;;;;;18.10;10.18;;;27.00;85.90;;;;;;4199704;28;20036;-64
2022/01/10 04:56:14;;;;;;;11.93;8.88;;;27.10;85.50;;;;;;4199336;28;20377;-65
2022/01/10 04:58:21;;;;;;;14.75;9.40;;;27.10;85.70;;;;;;4193357;28;20099;-65
2022/01/10 05:00:29;;;;;;;15.52;9.38;;;27.20;85.60;;;;;;4214163;28;20466;-65
2022/01/10 05:02:34;;;;;;;19.73;9.18;;;27.20;83.70;;;;;;4199699;28;20063;-63
2022/01/10 05:04:39;;;;;;;13.93;8.82;;;27.30;83.20;;;;;;4200060;28;20064;-66
2022/01/10 05:06:45;;;;;;;17.20;9.60;;;27.20;83.50;;;;;;4198582;28;20626;-65
2022/01/10 05:08:52;;;;;;;16.55;9.63;;;27.30;82.80;;;;;;4201339;28;20045;-66
2022/01/10 05:11:12;;;;;;;14.45;9.98;;;27.40;82.20;;;;;;4190393;28;20065;-65
2022/01/10 05:13:17;;;;;;;15.93;9.77;;;27.50;82.40;;;;;;4207981;28;20040;-68
2022/01/10 05:15:24;;;;;;;14.52;9.63;;;27.60;82.40;;;;;;4192484;28;20484;-65
2022/01/10 05:17:28;;;;;;;16.98;9.73;;;27.60;81.90;;;;;;4191944;28;20486;-66
2022/01/10 05:19:35;;;;;;;11.88;8.32;;;27.60;81.00;;;;;;4191456;28;20059;-66
2022/01/10 05:21:40;;;;;;;15.38;9.07;;;27.70;80.90;;;;;;4191399;28;20376;-64
2022/01/10 05:23:45;;;;;;;15.40;8.70;;;27.60;80.80;;;;;;4191655;28;20526;-65
2022/01/10 05:25:51;;;;;;;15.07;9.30;;;27.80;79.70;;;;;;4191505;28;20044;-66
2022/01/10 05:27:56;;;;;;;14.02;9.20;;;27.70;79.40;;;;;;4191166;28;20502;-66
2022/01/10 05:30:01;;;;;;;14.10;9.45;;;27.70;80.70;;;;;;4208903;28;20390;-65
2022/01/10 05:32:08;;;;;;;15.70;9.05;;;27.80;81.50;;;;;;4206934;28;20040;-65
2022/01/10 05:34:33;;;;;;;13.18;9.10;;;27.80;81.60;;;;;;4204266;28;20036;-67
2022/01/10 05:36:38;;;;;;;12.13;8.85;;;27.90;80.60;;;;;;4190430;28;20494;-66
2022/01/10 05:38:45;;;;;;;17.50;9.18;;;27.90;80.20;;;;;;4195463;28;20106;-65
2022/01/10 05:40:55;;;;;;;15.18;9.93;;;27.90;80.10;;;;;;4196276;28;20051;-65
2022/01/10 05:43:02;;;;;;;15.77;8.63;;;28.00;80.40;;;;;;4194038;28;20055;-66
2022/01/10 05:45:09;;;;;;;16.95;9.25;;;28.10;80.70;;;;;;4195042;28;20083;-64
2022/01/10 05:47:15;;;;;;;14.65;9.10;;;28.10;80.40;;;;;;4196193;28;20049;-66
2022/01/10 05:49:26;;;;;;;20.23;9.35;;;28.20;78.70;;;;;;4196502;28;20044;-66
2022/01/10 05:51:37;;;;;;;12.52;9.45;;;28.30;77.50;;;;;;4207439;28;20108;-66
2022/01/10 05:54:02;;;;;;;15.43;9.73;;;28.30;78.50;;;;;;4194443;28;20048;-67
2022/01/10 05:56:07;;;;;;;14.27;9.73;;;28.30;79.60;;;;;;4192809;28;20048;-68
2022/01/10 05:58:27;;;;;;;13.90;9.48;;;28.40;79.90;;;;;;4212724;28;20504;-65
2022/01/10 06:00:34;;;;;;;15.70;9.68;;;28.50;79.30;;;;;;4205393;28;20138;-66
2022/01/10 06:02:42;;;;;;;14.88;9.20;;;28.40;80.10;;;;;;4207195;28;20047;-66
2022/01/10 06:05:06;;;;;;;17.52;9.68;;;28.50;79.30;;;;;;4205937;28;20481;-65
2022/01/10 06:07:21;;;;;;;14.63;9.48;;;28.60;78.10;;;;;;4201370;28;20067;-65
2022/01/10 06:09:27;;;;;;;13.85;8.90;;;28.60;77.90;;;;;;4204491;28;20060;-66
2022/01/10 06:11:34;;;;;;;11.82;8.45;;;28.70;77.30;;;;;;4189281;28;20629;-65
2022/01/10 06:13:48;;;;;;;15.63;8.48;;;28.70;77.50;;;;;;4193396;28;20046;-68
2022/01/10 06:15:55;;;;;;;15.52;9.00;;;28.70;77.10;;;;;;4191028;28;20040;-66
2022/01/10 06:18:02;;;;;;;13.85;8.20;;;29.00;76.40;;;;;;4191401;28;20438;-64
2022/01/10 06:20:08;;;;;;;11.77;7.38;;;29.00;75.10;;;;;;4193178;28;20060;-65
2022/01/10 06:22:14;;;;;;;11.65;7.60;;;29.00;74.10;;;;;;4187736;28;20348;-64
2022/01/10 06:24:19;;;;;;;15.02;7.78;;;29.00;74.10;;;;;;4193145;28;20041;-65
2022/01/10 06:26:25;;;;;;;14.25;7.95;;;29.20;72.70;;;;;;4193412;28;20048;-66
2022/01/10 06:28:31;;;;;;;16.98;11.65;;;29.10;72.90;;;;;;4192686;28;20052;-67
2022/01/10 06:30:38;;;;;;;15.98;9.15;;;29.30;72.30;;;;;;4191124;28;20420;-64
2022/01/10 06:32:43;;;;;;;14.98;8.35;;;29.20;71.30;;;;;;4194935;28;20076;-65
2022/01/10 06:34:52;;;;;;;16.08;8.70;;;29.20;71.60;;;;;;4192797;28;20036;-67
2022/01/10 06:36:59;;;;;;;13.13;7.65;;;29.20;71.40;;;;;;4193435;28;20067;-67
2022/01/10 06:39:09;;;;;;;15.38;6.75;;;29.30;70.80;;;;;;4186173;28;20164;-66
2022/01/10 06:41:17;;;;;;;12.82;6.97;;;29.20;69.90;;;;;;4193189;28;20549;-67
2022/01/10 06:43:23;;;;;;;9.15;6.78;;;29.20;69.80;;;;;;4193978;28;20074;-67
2022/01/10 06:45:28;;;;;;;14.07;7.38;;;29.20;70.60;;;;;;4194153;28;20514;-67
2022/01/10 06:47:33;;;;;;;11.77;7.97;;;29.20;71.20;;;;;;4194073;28;20045;-68
2022/01/10 06:49:38;;;;;;;13.13;8.25;;;29.30;71.40;;;;;;4177686;28;20445;-67
2022/01/10 06:51:44;;;;;;;12.32;8.50;;;29.30;72.10;;;;;;4178155;28;20071;-68
2022/01/10 06:53:49;;;;;;;14.77;8.77;;;29.30;72.50;;;;;;4177405;28;20088;-68
2022/01/10 06:55:54;;;;;;;15.90;8.85;;;29.40;72.50;;;;;;4177374;28;20041;-68
2022/01/10 06:57:59;;;;;;;14.05;8.35;;;29.40;72.00;;;;;;4177562;28;20115;-68
2022/01/10 07:00:06;;;;;;;12.57;7.93;;;29.40;71.90;;;;;;4177670;28;20111;-67
2022/01/10 07:02:19;;;;;;;14.70;7.80;;;29.50;72.00;;;;;;4177637;28;20127;-68
2022/01/10 07:04:28;;;;;;;12.32;7.78;;;29.50;72.10;;;;;;4177342;28;20463;-67
2022/01/10 07:06:36;;;;;;;9.95;7.82;;;29.50;71.60;;;;;;4177500;28;20048;-68
2022/01/10 07:08:46;;;;;;;13.35;7.50;;;29.50;70.90;;;;;;4194033;28;20218;-68
2022/01/10 07:10:52;;;;;;;12.57;7.82;;;29.50;70.50;;;;;;4177117;28;20196;-67
2022/01/10 07:12:58;;;;;;;10.00;6.88;;;29.50;70.70;;;;;;4177338;28;20118;-67
2022/01/10 07:15:04;;;;;;;12.20;7.15;;;29.50;69.00;;;;;;4177346;28;20076;-67
2022/01/10 07:17:09;;;;;;;12.40;7.55;;;29.60;69.70;;;;;;4207139;28;20105;-67
2022/01/10 07:19:15;;;;;;;13.23;7.47;;;29.60;69.40;;;;;;4193660;28;20537;-68
2022/01/10 07:21:19;;;;;;;10.63;7.32;;;29.60;70.10;;;;;;4194028;28;20044;-68
2022/01/10 07:23:25;;;;;;;14.80;7.65;;;29.70;70.00;;;;;;4193649;28;20511;-68
2022/01/10 07:25:31;;;;;;;16.33;7.80;;;29.60;70.50;;;;;;4194783;28;20098;-66
2022/01/10 07:27:35;;;;;;;11.82;7.82;;;29.60;71.40;;;;;;4184597;28;20316;-64
2022/01/10 07:29:40;;;;;;;10.45;7.03;;;29.70;69.40;;;;;;4190948;28;20147;-63
2022/01/10 07:31:45;;;;;;;10.07;7.28;;;29.70;68.10;;;;;;4178535;28;20080;-64
2022/01/10 07:33:50;;;;;;;12.02;8.15;;;29.70;68.50;;;;;;4177369;28;20049;-63
2022/01/10 07:35:55;;;;;;;14.25;7.45;;;29.70;68.70;;;;;;4191702;28;20259;-65
2022/01/10 07:38:01;;;;;;;13.32;7.32;;;29.60;68.60;;;;;;4192196;28;20538;-66
2022/01/10 07:40:06;;;;;;;9.88;7.05;;;29.60;69.10;;;;;;4192045;28;20121;-65
2022/01/10 07:42:14;;;;;;;11.13;6.68;;;29.60;69.00;;;;;;4196679;28;20040;-66
2022/01/10 07:44:28;;;;;;;10.48;7.00;;;29.70;68.70;;;;;;4205732;28;20533;-66
2022/01/10 07:46:33;;;;;;;11.65;6.72;;;29.80;66.90;;;;;;4190911;28;20075;-63
2022/01/10 07:48:39;;;;;;;11.10;6.93;;;29.80;67.50;;;;;;4191414;28;20464;-64
2022/01/10 07:50:44;;;;;;;13.15;7.15;;;29.80;67.20;;;;;;4193773;28;20554;-64
2022/01/10 07:52:49;;;;;;;10.25;6.50;;;29.80;67.00;;;;;;4195348;28;20414;-65
2022/01/10 07:54:56;;;;;;;9.93;6.97;;;29.80;65.50;;;;;;4194310;28;20072;-65
2022/01/10 07:57:00;;;;;;;10.30;6.53;;;29.80;66.70;;;;;;4192267;28;20127;-65
2022/01/10 07:59:05;;;;;;;8.43;6.80;;;29.80;67.00;;;;;;4195060;28;20420;-65
2022/01/10 08:01:12;;;;;;;9.30;6.80;;;29.80;66.90;;;;;;4193339;28;20114;-65
2022/01/10 08:03:17;;;;;;;12.10;7.28;;;29.90;66.90;;;;;;4192256;28;20087;-66
2022/01/10 08:05:23;;;;;;;8.68;6.47;;;29.90;66.30;;;;;;4196808;28;20128;-66
2022/01/10 08:07:28;;;;;;;12.18;7.47;;;30.00;65.40;;;;;;4201097;28;20067;-66
2022/01/10 08:09:33;;;;;;;11.52;6.55;;;29.90;65.50;;;;;;4202994;28;20136;-66
2022/01/10 08:11:38;;;;;;;8.85;6.93;;;29.90;64.50;;;;;;4204458;28;20043;-67
2022/01/10 08:13:44;;;;;;;11.75;7.30;;;29.80;65.80;;;;;;4198192;28;20624;-65
2022/01/10 08:15:48;;;;;;;12.15;6.78;;;29.90;66.20;;;;;;4199670;28;20040;-65
2022/01/10 08:17:53;;;;;;;16.67;7.18;;;29.90;67.00;;;;;;4204277;28;20040;-65
2022/01/10 08:19:58;;;;;;;9.85;6.78;;;29.80;67.10;;;;;;4205422;28;20048;-65
2022/01/10 08:22:04;;;;;;;11.48;7.10;;;29.90;66.60;;;;;;4199903;28;20825;-65
2022/01/10 08:24:09;;;;;;;12.30;7.05;;;29.90;64.90;;;;;;4194751;28;20494;-65
2022/01/10 08:26:16;;;;;;;10.55;6.13;;;29.80;64.00;;;;;;4197639;28;20048;-65
2022/01/10 08:28:22;;;;;;;9.40;6.35;;;29.80;63.90;;;;;;4191854;28;20061;-64
2022/01/10 08:30:27;;;;;;;11.32;7.75;;;29.90;64.00;;;;;;4194332;28;20048;-66
2022/01/10 08:32:33;;;;;;;18.05;11.02;;;29.90;64.00;;;;;;4194466;28;20052;-65
2022/01/10 08:34:37;;;;;;;15.55;11.68;;;30.00;64.10;;;;;;4198999;28;20093;-65
2022/01/10 08:36:42;;;;;;;12.25;10.10;;;30.00;63.20;;;;;;4192000;28;20048;-63
2022/01/10 08:38:47;;;;;;;13.60;8.80;;;30.00;63.80;;;;;;4194073;28;20521;-65
2022/01/10 08:40:52;;;;;;;10.10;7.25;;;30.00;63.90;;;;;;4193994;28;20131;-64
2022/01/10 08:42:56;;;;;;;9.25;6.72;;;30.00;63.00;;;;;;4200587;28;20086;-65
2022/01/10 08:45:03;;;;;;;12.50;6.18;;;30.00;63.60;;;;;;4199190;28;20044;-66
2022/01/10 08:47:09;;;;;;;10.00;6.70;;;29.90;64.10;;;;;;4204703;28;20197;-66
2022/01/10 08:49:14;;;;;;;13.57;7.18;;;30.00;63.90;;;;;;4203954;28;20063;-66
2022/01/10 08:51:18;;;;;;;8.68;6.05;;;29.90;64.00;;;;;;4204609;28;20791;-67
2022/01/10 08:53:23;;;;;;;8.52;6.25;;;30.00;64.40;;;;;;4196588;28;20291;-65
2022/01/10 08:55:29;;;;;;;8.18;5.80;;;29.90;64.40;;;;;;4198957;28;20041;-66
2022/01/10 08:57:33;;;;;;;7.93;5.40;;;30.00;63.60;;;;;;4192423;28;20067;-63
2022/01/10 08:59:38;;;;;;;9.88;6.47;;;29.90;64.30;;;;;;4193532;28;20055;-66
2022/01/10 09:01:46;;;;;;;14.20;6.18;;;30.00;63.90;;;;;;4200674;28;20036;-66
2022/01/10 09:03:50;;;;;;;10.15;5.53;;;30.00;65.00;;;;;;4209923;28;20056;-66
2022/01/10 09:05:56;;;;;;;7.00;5.70;;;30.00;64.30;;;;;;4204656;28;20484;-66
2022/01/10 09:08:01;;;;;;;8.95;6.00;;;30.00;64.30;;;;;;4193409;28;20097;-65
2022/01/10 09:10:06;;;;;;;8.00;6.03;;;30.00;64.10;;;;;;4192755;28;20067;-65
2022/01/10 09:12:11;;;;;;;11.68;6.05;;;30.00;64.70;;;;;;4199122;28;20044;-65
2022/01/10 09:14:16;;;;;;;11.15;5.35;;;30.00;63.40;;;;;;4193107;28;20098;-65
2022/01/10 09:16:20;;;;;;;9.88;5.30;;;30.00;62.60;;;;;;4192052;28;20127;-65
2022/01/10 09:18:26;;;;;;;8.10;5.53;;;30.00;61.50;;;;;;4194411;28;20127;-65
2022/01/10 09:20:32;;;;;;;13.45;6.10;;;30.00;61.70;;;;;;4196559;28;20482;-66
2022/01/10 09:22:40;;;;;;;9.27;5.28;;;29.90;58.90;;;;;;4194972;28;20139;-66
2022/01/10 09:24:46;;;;;;;8.80;5.45;;;29.90;60.40;;;;;;4195309;28;20102;-68
2022/01/10 09:26:51;;;;;;;8.18;5.40;;;29.90;61.30;;;;;;4208027;28;20043;-66
2022/01/10 09:29:00;;;;;;;9.48;5.68;;;29.90;61.00;;;;;;4208129;28;20101;-67
2022/01/10 09:31:05;;;;;;;7.38;5.60;;;29.90;60.40;;;;;;4198516;28;20064;-66
2022/01/10 09:33:11;;;;;;;12.10;5.28;;;29.80;60.90;;;;;;4189495;28;20049;-66
2022/01/10 09:35:15;;;;;;;10.43;5.53;;;29.80;61.90;;;;;;4195870;28;20032;-66
2022/01/10 09:37:20;;;;;;;10.30;5.20;;;29.80;62.30;;;;;;4193147;28;20131;-65
2022/01/10 09:39:25;;;;;;;14.00;5.05;;;29.80;62.00;;;;;;4200288;28;20093;-66
2022/01/10 09:41:34;;;;;;;9.77;5.40;;;29.80;61.90;;;;;;4191689;28;20387;-65
2022/01/10 09:43:51;;;;;;;9.02;5.35;;;29.80;62.00;;;;;;4201999;28;20052;-66
2022/01/10 09:45:56;;;;;;;10.13;6.05;;;29.80;62.00;;;;;;4193354;28;20451;-65
2022/01/10 09:48:02;;;;;;;11.93;5.60;;;29.70;62.40;;;;;;4194833;28;20082;-65
2022/01/10 09:50:08;;;;;;;9.38;5.70;;;29.70;62.50;;;;;;4200650;28;20056;-65
2022/01/10 09:52:16;;;;;;;10.02;5.75;;;29.70;62.50;;;;;;4193666;28;20044;-64
2022/01/10 09:54:24;;;;;;;9.32;6.38;;;29.70;62.30;;;;;;4192881;28;20045;-65
2022/01/10 09:56:29;;;;;;;9.77;6.18;;;29.60;62.50;;;;;;4189311;28;20040;-65
2022/01/10 09:58:36;;;;;;;8.10;5.90;;;29.60;62.80;;;;;;4191666;28;20036;-65
2022/01/10 10:00:42;;;;;;;14.38;6.75;;;29.60;63.30;;;;;;4191587;28;20135;-66
2022/01/10 10:02:48;;;;;;;14.73;10.50;;;29.60;63.60;;;;;;4190439;28;20052;-66
2022/01/10 10:04:53;;;;;;;12.30;9.93;;;29.50;64.10;;;;;;4193051;28;20040;-66
2022/01/10 10:07:01;;;;;;;16.10;10.25;;;29.50;64.30;;;;;;4191082;28;20068;-66
2022/01/10 10:09:09;;;;;;;19.08;12.02;;;29.50;64.70;;;;;;4207315;28;20048;-66
2022/01/10 10:11:14;;;;;;;19.80;12.90;;;29.40;64.70;;;;;;4192262;28;20442;-65
2022/01/10 10:13:20;;;;;;;20.20;12.60;;;29.50;65.20;;;;;;4190990;28;20048;-64
2022/01/10 10:15:31;;;;;;;23.40;11.63;;;29.40;65.40;;;;;;4191182;28;20189;-62
2022/01/10 10:17:37;;;;;;;16.83;11.68;;;29.40;65.60;;;;;;4192503;28;20048;-62
2022/01/10 10:19:42;;;;;;;17.67;10.40;;;29.40;66.00;;;;;;4192568;28;20064;-65
2022/01/10 10:21:50;;;;;;;14.00;9.38;;;29.30;66.20;;;;;;4191952;28;20106;-66
2022/01/10 10:23:55;;;;;;;23.95;9.57;;;29.30;66.50;;;;;;4191376;28;20067;-66
2022/01/10 10:26:03;;;;;;;16.48;9.95;;;29.30;66.90;;;;;;4191261;28;20044;-66
2022/01/10 10:28:09;;;;;;;31.33;11.38;;;29.20;68.20;;;;;;4190785;28;20068;-66
2022/01/10 10:30:16;;;;;;;26.40;10.80;;;29.20;67.90;;;;;;4155269;28;20045;-65
2022/01/10 10:32:30;;;;;;;27.27;11.70;;;29.20;68.00;;;;;;4192563;28;20040;-65
2022/01/10 10:34:35;;;;;;;22.25;11.38;;;29.10;68.20;;;;;;4192245;28;20348;-65
2022/01/10 10:36:43;;;;;;;25.02;11.70;;;29.10;68.40;;;;;;4190884;28;20113;-65
2022/01/10 10:38:50;;;;;;;34.90;12.23;;;29.10;68.50;;;;;;4192526;28;20102;-64
2022/01/10 10:40:54;;;;;;;28.20;15.25;;;29.10;68.70;;;;;;4191500;28;20076;-64
2022/01/10 10:43:00;;;;;;;28.42;14.27;;;29.00;68.80;;;;;;4194505;28;20044;-66
2022/01/10 10:45:11;;;;;;;29.38;15.45;;;29.00;69.30;;;;;;4194416;28;20098;-65
2022/01/10 10:47:17;;;;;;;27.15;14.07;;;28.90;69.60;;;;;;4194791;28;20124;-66
2022/01/10 10:49:30;;;;;;;27.67;12.05;;;28.90;70.00;;;;;;4159158;28;20577;-66
2022/01/10 10:51:36;;;;;;;26.25;12.10;;;28.80;70.30;;;;;;4152319;28;20690;-66
2022/01/10 10:53:41;;;;;;;27.08;13.65;;;28.80;70.50;;;;;;4155996;28;20131;-66
2022/01/10 10:55:46;;;;;;;42.83;23.02;;;28.80;70.60;;;;;;4155716;28;20076;-66
2022/01/10 10:58:09;;;;;;;51.25;27.65;;;28.70;70.50;;;;;;4154410;28;20052;-66
2022/01/10 11:00:32;;;;;;;47.10;25.92;;;28.70;70.80;;;;;;4154984;28;20056;-66